createdAt,value
2022-12-17T00:04:59.763Z,0
2022-12-17T00:11:22.867Z,0
2022-12-17T00:17:42.795Z,0
2022-12-17T00:24:05.826Z,0
2022-12-17T00:30:25.781Z,0
2022-12-17T00:36:48.840Z,0
2022-12-17T00:43:08.817Z,0
2022-12-17T00:49:31.876Z,0
2022-12-17T00:55:51.873Z,0
2022-12-17T01:02:15.018Z,0
2022-12-17T01:08:34.850Z,0
2022-12-17T01:14:57.846Z,0
2022-12-17T01:21:17.751Z,0
2022-12-17T01:27:41.010Z,0
2022-12-17T01:34:00.772Z,0
2022-12-17T01:40:23.834Z,0
2022-12-17T01:46:43.907Z,0
2022-12-17T01:53:06.837Z,0
2022-12-17T01:59:26.924Z,0
2022-12-17T02:05:49.776Z,0
2022-12-17T02:12:09.760Z,0
2022-12-17T02:18:32.815Z,0
2022-12-17T02:24:52.838Z,0
2022-12-17T02:31:15.883Z,0
2022-12-17T02:37:35.769Z,0
2022-12-17T02:43:58.794Z,0
2022-12-17T02:50:18.795Z,0
2022-12-17T02:56:41.806Z,0
2022-12-17T03:03:01.848Z,0
2022-12-17T03:09:24.801Z,0
2022-12-17T03:15:44.820Z,0
2022-12-17T03:22:07.792Z,0
2022-12-17T03:28:27.830Z,0
2022-12-17T03:34:50.768Z,0
2022-12-17T03:41:10.740Z,0
2022-12-17T03:47:33.797Z,0
2022-12-17T03:53:53.791Z,0
2022-12-17T04:00:16.867Z,0
2022-12-17T04:24:16.687Z,0
2022-12-17T04:30:36.917Z,0
2022-12-17T04:36:59.780Z,0
2022-12-17T04:43:19.770Z,0
2022-12-17T04:49:42.800Z,0
2022-12-17T04:56:02.775Z,0
2022-12-17T05:02:25.897Z,0
2022-12-17T05:08:45.897Z,0
2022-12-17T05:15:09.795Z,0
2022-12-17T05:21:33.264Z,0
2022-12-17T05:27:52.996Z,0
2022-12-17T05:34:12.862Z,0
2022-12-17T05:40:35.859Z,0
2022-12-17T05:46:55.836Z,0
2022-12-17T05:53:18.834Z,0
2022-12-17T05:59:38.811Z,0
2022-12-17T06:06:01.739Z,0
2022-12-17T06:12:21.744Z,0
2022-12-17T06:18:44.768Z,0
2022-12-17T06:25:04.933Z,0
2022-12-17T06:31:27.790Z,0
2022-12-17T06:37:47.763Z,0
2022-12-17T06:44:10.822Z,0
2022-12-17T06:50:30.738Z,0
2022-12-17T06:56:53.817Z,0
2022-12-17T07:03:14.859Z,0
2022-12-17T07:09:36.756Z,0
2022-12-17T07:15:57.011Z,0
2022-12-17T07:22:19.834Z,0
2022-12-17T07:28:39.785Z,0
2022-12-17T07:35:02.856Z,0
2022-12-17T07:41:23.028Z,0
2022-12-17T07:47:45.840Z,0
2022-12-17T07:54:05.826Z,0
2022-12-17T08:00:28.808Z,0
2022-12-17T08:06:48.748Z,0
2022-12-17T08:13:14.159Z,0
2022-12-17T08:19:31.922Z,0
2022-12-17T08:25:54.736Z,0
2022-12-17T08:32:14.835Z,5.62
2022-12-17T08:38:37.769Z,5.62
2022-12-17T08:44:57.904Z,5.62
2022-12-17T08:51:20.865Z,5.62
2022-12-17T08:57:40.736Z,5.62
2022-12-17T09:04:03.770Z,5.62
2022-12-17T09:10:23.788Z,11.25
2022-12-17T09:27:16.599Z,11.25
2022-12-17T09:33:37.181Z,11.25
2022-12-17T09:39:59.785Z,16.88
2022-12-17T09:46:19.838Z,16.88
2022-12-17T09:52:42.780Z,16.88
2022-12-17T09:59:02.776Z,22.5
2022-12-17T10:05:25.844Z,28.12
2022-12-17T10:11:45.785Z,33.75
2022-12-17T10:18:08.774Z,33.75
2022-12-17T10:24:28.785Z,45
2022-12-17T10:30:51.831Z,39.38
2022-12-17T10:37:11.754Z,39.38
2022-12-17T10:43:35.062Z,45
2022-12-17T10:49:54.786Z,50.62
2022-12-17T10:56:17.761Z,50.62
2022-12-17T11:02:38.040Z,50.62
2022-12-17T11:09:00.835Z,50.62
2022-12-17T11:15:20.852Z,50.62
2022-12-17T11:21:43.827Z,50.62
2022-12-17T11:28:03.890Z,50.62
2022-12-17T11:34:26.894Z,56.25
2022-12-17T11:40:46.776Z,50.62
2022-12-17T11:47:09.742Z,56.25
2022-12-17T11:53:29.774Z,56.25
2022-12-17T11:59:55.009Z,56.25
2022-12-17T12:06:12.792Z,56.25
2022-12-17T12:12:35.856Z,61.88
2022-12-17T12:18:56.025Z,61.88
2022-12-17T12:25:18.782Z,61.88
2022-12-17T12:31:38.888Z,61.88
2022-12-17T12:38:01.897Z,61.88
2022-12-17T12:44:21.812Z,61.88
2022-12-17T12:50:44.822Z,61.88
2022-12-17T12:57:04.824Z,61.88
2022-12-17T13:03:30.539Z,61.88
2022-12-17T13:09:47.884Z,61.88
2022-12-17T13:16:10.897Z,56.25
2022-12-17T13:22:30.857Z,50.62
2022-12-17T13:28:53.781Z,45
2022-12-17T13:35:13.882Z,28.12
2022-12-17T13:41:36.853Z,22.5
2022-12-17T13:47:56.861Z,22.5
2022-12-17T13:54:19.823Z,16.88
2022-12-17T14:00:39.746Z,16.88
2022-12-17T14:07:02.836Z,16.88
2022-12-17T14:13:22.928Z,16.88
2022-12-17T14:37:03.761Z,5.62
2022-12-17T14:43:26.740Z,5.62
2022-12-17T14:49:49.697Z,5.62
2022-12-17T14:56:09.761Z,5.62
2022-12-17T15:02:29.900Z,0
2022-12-17T15:08:52.792Z,0
2022-12-17T15:15:12.798Z,0
2022-12-17T15:21:36.097Z,0
2022-12-17T15:27:55.774Z,0
2022-12-17T15:34:18.843Z,0
2022-12-17T15:40:38.953Z,0
2022-12-17T15:47:01.901Z,0
2022-12-17T15:53:21.874Z,0
2022-12-17T15:59:44.847Z,0
2022-12-17T16:06:04.767Z,0
2022-12-17T16:12:27.802Z,0
2022-12-17T16:18:47.730Z,0
2022-12-17T16:25:10.787Z,0
2022-12-17T16:31:32.149Z,0
2022-12-17T16:37:54.820Z,0
2022-12-17T16:44:14.793Z,0
2022-12-17T16:50:37.816Z,0
2022-12-17T16:56:57.856Z,0
2022-12-17T17:03:21.037Z,0
2022-12-17T17:09:40.787Z,0
2022-12-17T17:16:03.794Z,0
2022-12-17T17:22:23.738Z,0
2022-12-17T17:28:46.859Z,0
2022-12-17T17:35:06.811Z,0
2022-12-17T17:41:29.838Z,0
2022-12-17T17:47:49.802Z,0
2022-12-17T17:54:14.436Z,0
2022-12-17T18:00:32.771Z,0
2022-12-17T18:07:24.026Z,0
2022-12-17T18:13:15.766Z,0
2022-12-17T18:19:38.791Z,0
2022-12-17T18:25:58.829Z,0
2022-12-17T18:32:21.762Z,0
2022-12-17T18:38:41.726Z,0
2022-12-17T18:45:05.159Z,0
2022-12-17T18:51:24.807Z,0
2022-12-17T18:57:47.785Z,0
2022-12-17T19:04:07.775Z,0
2022-12-17T19:10:30.738Z,0
2022-12-17T19:16:50.873Z,0
2022-12-17T19:41:23.199Z,0
2022-12-17T19:47:42.751Z,0
2022-12-17T19:54:08.720Z,0
2022-12-17T20:00:25.776Z,0
2022-12-17T20:06:48.844Z,0
2022-12-17T20:13:08.767Z,0
2022-12-17T20:19:31.902Z,0
2022-12-17T20:25:51.775Z,0
2022-12-17T20:32:15.944Z,0
2022-12-17T20:38:36.153Z,0
2022-12-17T20:44:58.773Z,0
2022-12-17T20:51:18.740Z,0
2022-12-17T20:57:41.898Z,0
2022-12-17T21:04:01.794Z,0
2022-12-17T21:10:24.793Z,0
2022-12-17T21:16:44.937Z,0
2022-12-17T21:23:07.792Z,0
2022-12-17T21:29:27.978Z,0
2022-12-17T21:35:50.833Z,0
2022-12-17T21:42:10.765Z,0
2022-12-17T21:48:39.782Z,0
2022-12-17T21:54:53.777Z,0
2022-12-17T22:01:17.855Z,0
2022-12-17T22:07:40.178Z,0
2022-12-17T22:14:05.005Z,0
2022-12-17T22:20:19.897Z,0
2022-12-17T22:26:42.776Z,0
2022-12-17T22:33:04.800Z,0
2022-12-17T22:40:16.892Z,0
2022-12-17T22:45:47.520Z,0
2022-12-17T22:52:11.495Z,0
2022-12-17T22:58:31.811Z,0
2022-12-17T23:21:28.826Z,0
2022-12-17T23:27:48.754Z,0
2022-12-17T23:34:11.913Z,0
2022-12-17T23:40:32.787Z,0
2022-12-17T23:46:56.180Z,0
2022-12-17T23:53:15.785Z,0
2022-12-17T23:59:39.147Z,0
